Time;durP1;ratioP1;P1;durP2;ratioP2;P2;SDS_P1;SDS_P2;PMS_P1;PMS_P2;Temp;Humidity;BMP_temperature;BMP_pressure;BME280_temperature;BME280_humidity;BME280_pressure;Samples;Min_cycle;Max_cycle;Signal;HPM_P1;HPM_P2
2022/03/03 00:01:42;;;;;;;6.72;2.80;;;;;;;;;;7384333;19;20022;-71
2022/03/03 00:04:08;;;;;;;4.95;2.53;;;;;;;;;;7385884;19;20011;-72
2022/03/03 00:06:34;;;;;;;7.53;2.78;;;;;;;;;;7384521;19;20007;-72
2022/03/03 00:09:00;;;;;;;6.57;2.30;;;;;;;;;;7390497;19;19994;-71
2022/03/03 00:11:25;;;;;;;6.18;2.53;;;;;;;;;;7384384;19;20031;-72
2022/03/03 00:13:50;;;;;;;6.18;2.60;;;;;;;;;;7388162;19;20011;-70
2022/03/03 00:16:16;;;;;;;3.72;2.00;;;;;;;;;;7384372;19;20010;-70
2022/03/03 00:18:41;;;;;;;4.40;2.40;;;;;;;;;;7385863;19;20006;-72
2022/03/03 00:21:07;;;;;;;6.05;2.22;;;;;;;;;;7386541;19;20049;-71
2022/03/03 00:23:32;;;;;;;5.00;2.42;;;;;;;;;;7388078;19;19999;-70
2022/03/03 00:25:59;;;;;;;6.25;2.30;;;;;;;;;;7384570;19;20010;-72
2022/03/03 00:28:26;;;;;;;4.57;2.28;;;;;;;;;;7385725;19;20011;-70
2022/03/03 00:30:51;;;;;;;6.10;2.60;;;;;;;;;;7386249;19;20587;-72
2022/03/03 00:33:17;;;;;;;6.00;2.20;;;;;;;;;;7386096;19;20087;-71
2022/03/03 00:35:42;;;;;;;4.75;2.50;;;;;;;;;;7384954;19;20126;-71
2022/03/03 00:38:09;;;;;;;10.82;3.35;;;;;;;;;;7385459;19;20088;-71
2022/03/03 00:40:34;;;;;;;5.97;2.80;;;;;;;;;;7388476;19;20010;-73
2022/03/03 00:42:59;;;;;;;6.80;3.17;;;;;;;;;;7386665;19;20017;-71
2022/03/03 00:45:25;;;;;;;8.20;2.75;;;;;;;;;;7385386;19;20007;-71
2022/03/03 00:47:50;;;;;;;8.82;2.88;;;;;;;;;;7385248;19;20025;-72
2022/03/03 00:50:15;;;;;;;4.72;2.40;;;;;;;;;;7384913;19;20035;-71
2022/03/03 00:52:41;;;;;;;6.90;3.05;;;;;;;;;;7385395;19;20019;-71
2022/03/03 00:55:07;;;;;;;6.63;2.70;;;;;;;;;;7385348;19;20419;-72
2022/03/03 00:57:33;;;;;;;5.20;2.60;;;;;;;;;;7385321;19;20090;-71
2022/03/03 00:59:59;;;;;;;8.38;2.97;;;;;;;;;;7386979;19;20011;-71
2022/03/03 01:02:24;;;;;;;6.55;2.83;;;;;;;;;;7387118;19;20102;-72
2022/03/03 01:04:50;;;;;;;5.63;2.70;;;;;;;;;;7386567;19;20010;-71
2022/03/03 01:07:15;;;;;;;7.07;2.65;;;;;;;;;;7385051;19;20002;-71
2022/03/03 01:09:40;;;;;;;6.53;2.42;;;;;;;;;;7387329;19;20836;-70
2022/03/03 01:12:06;;;;;;;6.78;2.30;;;;;;;;;;7385508;19;19999;-71
2022/03/03 01:14:31;;;;;;;7.05;2.80;;;;;;;;;;7385737;19;20038;-71
2022/03/03 01:16:57;;;;;;;6.95;2.60;;;;;;;;;;7385186;19;20363;-71
2022/03/03 01:19:22;;;;;;;6.80;2.65;;;;;;;;;;7382828;19;20003;-71
2022/03/03 01:21:47;;;;;;;7.20;3.25;;;;;;;;;;7386340;19;20859;-71
2022/03/03 01:24:12;;;;;;;6.45;2.33;;;;;;;;;;7385025;19;20114;-72
2022/03/03 01:26:38;;;;;;;5.32;2.38;;;;;;;;;;7382761;19;20010;-71
2022/03/03 01:29:03;;;;;;;6.28;2.72;;;;;;;;;;7376843;19;20006;-71
2022/03/03 01:31:29;;;;;;;4.97;2.47;;;;;;;;;;7387180;19;20024;-71
2022/03/03 01:33:54;;;;;;;4.75;2.22;;;;;;;;;;7386567;19;20014;-71
2022/03/03 01:36:19;;;;;;;7.70;2.33;;;;;;;;;;7385032;19;20010;-70
2022/03/03 01:38:44;;;;;;;4.95;2.63;;;;;;;;;;7385294;19;20010;-71
2022/03/03 01:41:10;;;;;;;5.97;2.47;;;;;;;;;;7385386;19;20046;-73
2022/03/03 01:43:37;;;;;;;5.05;2.60;;;;;;;;;;7382524;19;20011;-71
2022/03/03 01:46:02;;;;;;;5.70;2.70;;;;;;;;;;7376271;19;20025;-71
2022/03/03 01:48:28;;;;;;;4.90;2.47;;;;;;;;;;7383955;19;20428;-71
2022/03/03 01:50:53;;;;;;;5.22;2.70;;;;;;;;;;7382177;19;21544;-72
2022/03/03 01:53:19;;;;;;;10.25;2.40;;;;;;;;;;7385686;19;20007;-73
2022/03/03 01:55:45;;;;;;;9.30;2.55;;;;;;;;;;7381714;19;20757;-72
2022/03/03 01:58:10;;;;;;;6.20;2.50;;;;;;;;;;7385180;19;20021;-71
2022/03/03 02:00:36;;;;;;;6.22;2.35;;;;;;;;;;7382648;19;19999;-72
2022/03/03 02:03:01;;;;;;;7.47;3.03;;;;;;;;;;7383370;19;20451;-70
2022/03/03 02:05:27;;;;;;;6.25;2.30;;;;;;;;;;7387406;19;20047;-73
2022/03/03 02:07:53;;;;;;;5.32;2.53;;;;;;;;;;7390649;19;20011;-72
2022/03/03 02:10:18;;;;;;;5.05;2.45;;;;;;;;;;7391324;19;20336;-70
2022/03/03 02:12:43;;;;;;;9.90;2.45;;;;;;;;;;7390770;19;20415;-71
2022/03/03 02:15:16;;;;;;;6.95;2.42;;;;;;;;;;7391799;19;20046;-72
2022/03/03 02:17:42;;;;;;;5.78;2.40;;;;;;;;;;7390861;19;20070;-71
2022/03/03 02:20:16;;;;;;;6.72;2.53;;;;;;;;;;7389475;19;20806;-72
2022/03/03 02:22:42;;;;;;;7.70;2.38;;;;;;;;;;7391890;19;20096;-70
2022/03/03 02:25:08;;;;;;;5.60;2.47;;;;;;;;;;7391159;19;20014;-71
2022/03/03 02:27:33;;;;;;;4.10;2.17;;;;;;;;;;7389681;19;20010;-70
2022/03/03 02:30:00;;;;;;;5.47;1.92;;;;;;;;;;7390951;19;20094;-70
2022/03/03 02:32:25;;;;;;;5.70;2.35;;;;;;;;;;7391326;19;20527;-71
2022/03/03 02:34:50;;;;;;;4.97;2.42;;;;;;;;;;7390250;19;20015;-71
2022/03/03 02:37:16;;;;;;;5.47;2.10;;;;;;;;;;7390065;19;20487;-72
2022/03/03 02:39:42;;;;;;;6.57;2.42;;;;;;;;;;7389847;19;20065;-70
2022/03/03 02:42:09;;;;;;;5.15;2.30;;;;;;;;;;7391339;19;20140;-71
2022/03/03 02:44:34;;;;;;;8.23;2.83;;;;;;;;;;7387689;19;20494;-73
2022/03/03 02:46:59;;;;;;;7.05;2.70;;;;;;;;;;7389581;19;20334;-71
2022/03/03 02:49:26;;;;;;;6.63;2.80;;;;;;;;;;7391450;19;20010;-71
2022/03/03 02:51:51;;;;;;;6.78;2.63;;;;;;;;;;7391271;19;20446;-71
2022/03/03 02:54:16;;;;;;;8.18;2.35;;;;;;;;;;7391675;19;20014;-73
2022/03/03 02:59:26;;;;;;;6.30;2.78;;;;;;;;;;7390817;19;20337;-70
2022/03/03 03:01:51;;;;;;;5.40;2.60;;;;;;;;;;7389438;19;20433;-71
2022/03/03 03:04:16;;;;;;;5.68;2.42;;;;;;;;;;7390722;19;20007;-70
2022/03/03 03:06:42;;;;;;;6.78;2.40;;;;;;;;;;7388694;19;20002;-71
2022/03/03 03:09:07;;;;;;;4.30;2.08;;;;;;;;;;7391847;19;20007;-72
2022/03/03 03:11:32;;;;;;;6.72;2.53;;;;;;;;;;7391172;19;20034;-69
2022/03/03 03:13:58;;;;;;;8.02;2.95;;;;;;;;;;7390038;19;19998;-71
2022/03/03 03:16:23;;;;;;;5.38;2.53;;;;;;;;;;7387684;19;20018;-71
2022/03/03 03:18:48;;;;;;;7.20;2.85;;;;;;;;;;7389471;19;20044;-70
2022/03/03 03:21:13;;;;;;;8.35;2.53;;;;;;;;;;7397353;19;20013;-71
2022/03/03 03:23:39;;;;;;;4.90;2.58;;;;;;;;;;7399549;19;20365;-69
2022/03/03 03:26:04;;;;;;;5.30;2.38;;;;;;;;;;7395499;19;20028;-71
2022/03/03 03:28:30;;;;;;;5.57;2.20;;;;;;;;;;7396524;19;20022;-72
2022/03/03 03:30:55;;;;;;;7.35;2.70;;;;;;;;;;7397026;19;20006;-69
2022/03/03 03:33:21;;;;;;;6.32;2.63;;;;;;;;;;7397523;19;20006;-72
2022/03/03 03:35:46;;;;;;;7.18;2.63;;;;;;;;;;7393262;19;20011;-71
2022/03/03 03:38:12;;;;;;;6.75;2.60;;;;;;;;;;7397319;19;20014;-70
2022/03/03 03:40:37;;;;;;;6.43;2.38;;;;;;;;;;7396790;19;20010;-70
2022/03/03 03:43:03;;;;;;;5.20;2.33;;;;;;;;;;7398053;19;20011;-70
2022/03/03 03:45:28;;;;;;;5.95;2.63;;;;;;;;;;7396528;19;20014;-72
2022/03/03 03:47:53;;;;;;;7.53;2.65;;;;;;;;;;7397962;19;20010;-70
2022/03/03 03:50:19;;;;;;;4.35;2.13;;;;;;;;;;7395443;19;20011;-70
2022/03/03 03:52:44;;;;;;;7.10;2.78;;;;;;;;;;7395502;19;20006;-70
2022/03/03 03:55:12;;;;;;;5.47;2.53;;;;;;;;;;7396248;19;20352;-71
2022/03/03 03:57:38;;;;;;;5.05;2.15;;;;;;;;;;7395847;19;20006;-69
2022/03/03 04:00:06;;;;;;;7.22;2.92;;;;;;;;;;7394799;19;20014;-69
2022/03/03 04:02:31;;;;;;;8.30;2.60;;;;;;;;;;7395431;19;20020;-69
2022/03/03 04:04:57;;;;;;;7.20;2.83;;;;;;;;;;7396343;19;20010;-72
2022/03/03 04:07:22;;;;;;;5.90;2.95;;;;;;;;;;7397239;19;20507;-70
2022/03/03 04:09:47;;;;;;;7.15;3.15;;;;;;;;;;7396675;19;20033;-70
2022/03/03 04:12:13;;;;;;;9.68;3.53;;;;;;;;;;7397197;19;20030;-70
2022/03/03 04:14:38;;;;;;;8.07;3.63;;;;;;;;;;7396846;19;20013;-70
2022/03/03 04:17:03;;;;;;;7.25;2.80;;;;;;;;;;7398359;19;20569;-72
2022/03/03 04:19:29;;;;;;;10.95;3.20;;;;;;;;;;7394973;19;20044;-70
2022/03/03 04:21:54;;;;;;;6.68;2.63;;;;;;;;;;7397696;19;20014;-71
2022/03/03 04:24:20;;;;;;;7.78;3.20;;;;;;;;;;7392216;19;20034;-72
2022/03/03 04:26:45;;;;;;;8.85;3.15;;;;;;;;;;7387741;19;20353;-71
2022/03/03 04:29:10;;;;;;;10.43;3.50;;;;;;;;;;7387961;19;20565;-71
2022/03/03 04:31:36;;;;;;;5.88;2.95;;;;;;;;;;7389713;19;20439;-73
2022/03/03 04:34:01;;;;;;;8.80;2.55;;;;;;;;;;7389424;19;20066;-70
2022/03/03 04:36:27;;;;;;;7.60;2.65;;;;;;;;;;7387592;19;20086;-71
2022/03/03 04:38:52;;;;;;;5.88;2.60;;;;;;;;;;7389864;19;20010;-72
2022/03/03 04:41:18;;;;;;;7.45;2.70;;;;;;;;;;7388418;19;20016;-71
2022/03/03 04:43:43;;;;;;;7.10;2.70;;;;;;;;;;7389571;19;20017;-70
2022/03/03 04:46:08;;;;;;;6.00;2.30;;;;;;;;;;7386815;19;20015;-69
2022/03/03 04:48:35;;;;;;;4.68;2.33;;;;;;;;;;7387118;19;20602;-70
2022/03/03 04:51:00;;;;;;;5.65;2.80;;;;;;;;;;7387805;19;20006;-69
2022/03/03 04:53:27;;;;;;;7.38;3.22;;;;;;;;;;7389581;19;20024;-69
2022/03/03 04:55:52;;;;;;;7.63;2.80;;;;;;;;;;7386870;19;20322;-69
2022/03/03 04:58:18;;;;;;;5.43;2.63;;;;;;;;;;7388005;19;20021;-69
2022/03/03 05:00:43;;;;;;;6.07;2.67;;;;;;;;;;7387805;19;19999;-70
2022/03/03 05:03:09;;;;;;;5.72;2.70;;;;;;;;;;7381418;19;20555;-71
2022/03/03 05:05:34;;;;;;;9.70;2.90;;;;;;;;;;7382070;19;20002;-72
2022/03/03 05:07:59;;;;;;;6.60;2.88;;;;;;;;;;7384385;19;20010;-71
2022/03/03 05:10:25;;;;;;;6.30;2.60;;;;;;;;;;7384253;19;20007;-69
2022/03/03 05:12:50;;;;;;;6.95;3.40;;;;;;;;;;7384792;19;20512;-69
2022/03/03 05:15:15;;;;;;;7.30;2.90;;;;;;;;;;7382168;19;20003;-72
2022/03/03 05:17:41;;;;;;;7.05;2.92;;;;;;;;;;7384831;19;20011;-71
2022/03/03 05:20:06;;;;;;;7.18;2.67;;;;;;;;;;7382001;19;20014;-71
2022/03/03 05:22:32;;;;;;;7.90;3.33;;;;;;;;;;7346657;19;20122;-69
2022/03/03 05:24:57;;;;;;;5.10;2.38;;;;;;;;;;7382818;19;20078;-69
2022/03/03 05:27:23;;;;;;;10.27;2.88;;;;;;;;;;7380174;19;20012;-69
2022/03/03 05:29:48;;;;;;;5.60;2.47;;;;;;;;;;7384523;19;20006;-70
2022/03/03 05:32:13;;;;;;;7.93;3.10;;;;;;;;;;7384415;19;20019;-69
2022/03/03 05:34:39;;;;;;;8.75;3.00;;;;;;;;;;7385499;19;20014;-69
2022/03/03 05:37:06;;;;;;;6.75;2.40;;;;;;;;;;7383619;19;20006;-70
2022/03/03 05:39:31;;;;;;;6.57;2.42;;;;;;;;;;7379909;19;20022;-69
2022/03/03 05:41:57;;;;;;;6.68;2.83;;;;;;;;;;7383608;19;20007;-69
2022/03/03 05:44:24;;;;;;;7.97;3.45;;;;;;;;;;7382975;19;20013;-69
2022/03/03 05:46:50;;;;;;;7.78;2.90;;;;;;;;;;7380852;19;21123;-69
2022/03/03 05:49:16;;;;;;;10.10;2.75;;;;;;;;;;7382504;19;20041;-69
2022/03/03 05:51:41;;;;;;;6.97;2.90;;;;;;;;;;7381759;19;20010;-70
2022/03/03 05:54:06;;;;;;;7.15;2.92;;;;;;;;;;7382670;19;20448;-69
2022/03/03 05:56:38;;;;;;;8.25;2.72;;;;;;;;;;7378093;19;20002;-70
2022/03/03 05:59:06;;;;;;;5.22;2.58;;;;;;;;;;7383576;19;20082;-71
2022/03/03 06:01:34;;;;;;;9.57;3.40;;;;;;;;;;7383834;19;20015;-70
2022/03/03 06:04:00;;;;;;;4.75;2.30;;;;;;;;;;7384478;19;20045;-69
2022/03/03 06:06:34;;;;;;;7.47;2.90;;;;;;;;;;7381156;19;20086;-68
2022/03/03 06:09:08;;;;;;;7.95;3.03;;;;;;;;;;7385241;19;20041;-71
2022/03/03 06:11:36;;;;;;;7.00;2.50;;;;;;;;;;7382340;19;20493;-69
2022/03/03 06:14:06;;;;;;;8.23;3.28;;;;;;;;;;7379330;19;20007;-70
2022/03/03 06:16:32;;;;;;;7.68;2.90;;;;;;;;;;7380472;19;20018;-69
2022/03/03 06:18:58;;;;;;;8.23;3.17;;;;;;;;;;7381745;19;20002;-69
2022/03/03 06:21:24;;;;;;;9.35;3.47;;;;;;;;;;7381721;19;20010;-70
2022/03/03 06:23:49;;;;;;;9.73;2.95;;;;;;;;;;7381495;19;20426;-69
2022/03/03 06:26:18;;;;;;;9.38;3.17;;;;;;;;;;7378901;19;20010;-71
2022/03/03 06:28:44;;;;;;;9.35;3.40;;;;;;;;;;7378928;19;20011;-70
2022/03/03 06:31:10;;;;;;;9.65;3.75;;;;;;;;;;7367998;19;20018;-70
2022/03/03 06:33:36;;;;;;;10.75;3.92;;;;;;;;;;7380079;19;20010;-72
2022/03/03 06:36:02;;;;;;;19.90;5.18;;;;;;;;;;7379360;19;20359;-69
2022/03/03 06:38:28;;;;;;;22.63;6.82;;;;;;;;;;7374626;19;20010;-69
2022/03/03 06:40:55;;;;;;;9.80;4.05;;;;;;;;;;7378141;19;20431;-70
2022/03/03 06:43:20;;;;;;;14.38;4.47;;;;;;;;;;7379602;19;20003;-70
2022/03/03 06:45:45;;;;;;;10.68;3.88;;;;;;;;;;7376671;19;20375;-70
2022/03/03 06:48:11;;;;;;;8.57;3.25;;;;;;;;;;7377812;19;20027;-73
2022/03/03 06:50:40;;;;;;;11.90;3.20;;;;;;;;;;7380790;19;20018;-72
2022/03/03 06:53:07;;;;;;;11.25;3.60;;;;;;;;;;7384978;19;20011;-72
2022/03/03 06:55:33;;;;;;;7.38;3.28;;;;;;;;;;7387065;19;20032;-70
2022/03/03 06:57:59;;;;;;;8.35;3.63;;;;;;;;;;7383399;19;20081;-69
2022/03/03 07:00:29;;;;;;;10.05;3.60;;;;;;;;;;7386327;19;20392;-70
2022/03/03 07:02:55;;;;;;;10.13;3.90;;;;;;;;;;7386468;19;20026;-70
2022/03/03 07:05:21;;;;;;;8.30;3.58;;;;;;;;;;7385654;19;20049;-70
2022/03/03 07:07:48;;;;;;;7.55;3.42;;;;;;;;;;7386030;19;20007;-70
2022/03/03 07:10:19;;;;;;;9.55;3.13;;;;;;;;;;7385178;19;20441;-74
2022/03/03 07:12:44;;;;;;;10.55;3.50;;;;;;;;;;7387767;19;20391;-75
2022/03/03 07:15:10;;;;;;;8.45;4.03;;;;;;;;;;7387594;19;20010;-74
2022/03/03 07:17:44;;;;;;;6.68;3.35;;;;;;;;;;7388547;19;20018;-70
2022/03/03 07:20:13;;;;;;;9.43;3.45;;;;;;;;;;7384191;19;20002;-70
2022/03/03 07:22:52;;;;;;;8.50;3.58;;;;;;;;;;7386616;19;20022;-73
2022/03/03 07:25:18;;;;;;;8.95;3.60;;;;;;;;;;7385469;19;20017;-70
2022/03/03 07:27:45;;;;;;;6.65;3.33;;;;;;;;;;7386318;19;20027;-75
2022/03/03 07:30:15;;;;;;;6.40;3.17;;;;;;;;;;7385809;19;20007;-74
2022/03/03 07:32:55;;;;;;;5.72;2.80;;;;;;;;;;7384383;19;20096;-72
2022/03/03 07:35:23;;;;;;;7.75;3.38;;;;;;;;;;7385081;19;20015;-70
2022/03/03 07:38:00;;;;;;;8.77;3.10;;;;;;;;;;7389325;19;20010;-73
2022/03/03 07:40:30;;;;;;;8.18;3.55;;;;;;;;;;7386917;19;20100;-69
2022/03/03 07:42:57;;;;;;;8.20;3.33;;;;;;;;;;7386964;19;20035;-69
2022/03/03 07:45:24;;;;;;;6.18;3.13;;;;;;;;;;7386285;19;20495;-70
2022/03/03 07:47:51;;;;;;;7.63;3.55;;;;;;;;;;7387248;19;20018;-74
2022/03/03 07:50:17;;;;;;;6.93;3.17;;;;;;;;;;7387012;19;20003;-70
2022/03/03 07:52:43;;;;;;;9.45;3.03;;;;;;;;;;7387187;19;20007;-71
2022/03/03 07:55:09;;;;;;;14.02;3.30;;;;;;;;;;7388638;19;20011;-70
2022/03/03 07:57:40;;;;;;;8.80;3.42;;;;;;;;;;7387820;19;20307;-71
2022/03/03 08:00:10;;;;;;;9.70;3.35;;;;;;;;;;7384440;19;20014;-74
2022/03/03 08:02:39;;;;;;;8.27;3.67;;;;;;;;;;7380922;19;20098;-72
2022/03/03 08:05:05;;;;;;;8.07;3.45;;;;;;;;;;7383569;19;20336;-69
2022/03/03 08:07:38;;;;;;;7.88;3.13;;;;;;;;;;7385541;19;20074;-70
2022/03/03 08:10:05;;;;;;;6.93;3.35;;;;;;;;;;7380567;19;20023;-73
2022/03/03 08:12:31;;;;;;;5.45;3.28;;;;;;;;;;7385347;19;20022;-70
2022/03/03 08:14:58;;;;;;;11.10;3.92;;;;;;;;;;7386875;19;20025;-69
2022/03/03 08:17:25;;;;;;;6.75;3.72;;;;;;;;;;7385557;19;21151;-69
2022/03/03 08:19:53;;;;;;;6.68;2.80;;;;;;;;;;7383139;19;20480;-75
2022/03/03 08:22:19;;;;;;;6.53;3.10;;;;;;;;;;7375696;19;20011;-69
2022/03/03 08:24:45;;;;;;;7.43;3.55;;;;;;;;;;7379060;19;20658;-70
2022/03/03 08:27:12;;;;;;;5.97;3.22;;;;;;;;;;7376697;19;20022;-72
2022/03/03 08:29:38;;;;;;;8.45;4.25;;;;;;;;;;7382006;19;20296;-74
2022/03/03 08:32:10;;;;;;;6.72;3.70;;;;;;;;;;7383965;19;20011;-69
2022/03/03 08:34:42;;;;;;;8.13;3.92;;;;;;;;;;7383430;19;20007;-71
2022/03/03 08:37:13;;;;;;;7.68;3.88;;;;;;;;;;7376687;19;23129;-70
2022/03/03 08:39:40;;;;;;;7.78;4.03;;;;;;;;;;7384314;19;20078;-73
2022/03/03 08:42:12;;;;;;;9.63;5.00;;;;;;;;;;7386665;19;20013;-70
2022/03/03 08:44:41;;;;;;;12.45;5.15;;;;;;;;;;7380150;19;20085;-73
2022/03/03 08:47:07;;;;;;;10.00;5.15;;;;;;;;;;7381541;19;20107;-74
2022/03/03 08:49:39;;;;;;;8.90;4.18;;;;;;;;;;7385312;19;20723;-70
2022/03/03 08:52:06;;;;;;;8.10;4.53;;;;;;;;;;7384027;19;20010;-71
2022/03/03 08:54:31;;;;;;;9.32;4.57;;;;;;;;;;7383802;19;20006;-74
2022/03/03 08:56:56;;;;;;;8.73;4.60;;;;;;;;;;7347340;19;20443;-71
2022/03/03 08:59:22;;;;;;;8.20;4.47;;;;;;;;;;7387436;19;20007;-71
2022/03/03 09:01:49;;;;;;;13.23;5.22;;;;;;;;;;7385122;19;20344;-71
2022/03/03 09:04:14;;;;;;;9.95;5.00;;;;;;;;;;7385116;19;20014;-73
2022/03/03 09:06:40;;;;;;;9.95;4.95;;;;;;;;;;7380903;19;20015;-72
2022/03/03 09:09:05;;;;;;;7.90;4.00;;;;;;;;;;7385354;19;20512;-74
2022/03/03 09:11:30;;;;;;;7.97;4.00;;;;;;;;;;7383495;19;20086;-72
2022/03/03 09:13:56;;;;;;;9.38;4.97;;;;;;;;;;7385313;19;20010;-72
2022/03/03 09:16:21;;;;;;;7.53;4.70;;;;;;;;;;7382764;19;20010;-72
2022/03/03 09:18:47;;;;;;;8.23;4.88;;;;;;;;;;7379014;19;20007;-71
2022/03/03 09:21:14;;;;;;;9.23;5.45;;;;;;;;;;7384122;19;20027;-71
2022/03/03 09:23:40;;;;;;;8.75;5.20;;;;;;;;;;7386745;19;20040;-72
2022/03/03 09:26:05;;;;;;;9.68;5.32;;;;;;;;;;7377677;19;20015;-70
2022/03/03 09:28:31;;;;;;;8.55;5.10;;;;;;;;;;7380117;19;20018;-72
2022/03/03 09:30:56;;;;;;;9.25;5.20;;;;;;;;;;7382590;19;20542;-72
2022/03/03 09:33:23;;;;;;;10.38;5.88;;;;;;;;;;7386766;19;19995;-70
2022/03/03 09:35:48;;;;;;;10.82;6.13;;;;;;;;;;7381014;19;20014;-72
2022/03/03 09:38:14;;;;;;;13.35;6.40;;;;;;;;;;7386114;19;20097;-71
2022/03/03 09:40:39;;;;;;;16.65;6.35;;;;;;;;;;7379674;19;20014;-71
2022/03/03 09:43:06;;;;;;;10.93;6.35;;;;;;;;;;7383071;19;20075;-71
2022/03/03 09:45:33;;;;;;;7.60;5.03;;;;;;;;;;7382263;19;20023;-71
2022/03/03 09:48:00;;;;;;;11.00;5.95;;;;;;;;;;7383914;19;20006;-70
2022/03/03 09:50:26;;;;;;;11.35;5.75;;;;;;;;;;7378698;19;20082;-71
2022/03/03 09:52:53;;;;;;;13.25;6.22;;;;;;;;;;7380614;19;20015;-73
2022/03/03 09:55:20;;;;;;;10.82;5.78;;;;;;;;;;7380835;19;20017;-72
2022/03/03 09:57:47;;;;;;;13.77;6.13;;;;;;;;;;7380433;19;20037;-72
2022/03/03 10:00:12;;;;;;;18.70;6.53;;;;;;;;;;7381817;19;20066;-71
2022/03/03 10:02:58;;;;;;;18.60;5.53;;;;;;;;;;7382344;19;20015;-72
2022/03/03 10:05:39;;;;;;;9.73;5.40;;;;;;;;;;7377949;19;20030;-68
2022/03/03 10:08:07;;;;;;;10.82;4.85;;;;;;;;;;7378137;19;20015;-71
2022/03/03 10:10:34;;;;;;;7.03;4.55;;;;;;;;;;7382992;19;20221;-71
2022/03/03 10:13:00;;;;;;;7.47;4.65;;;;;;;;;;7382320;19;20007;-72
2022/03/03 10:15:29;;;;;;;10.05;5.20;;;;;;;;;;7381964;19;20010;-72
2022/03/03 10:17:56;;;;;;;13.63;5.50;;;;;;;;;;7381188;19;20080;-72
2022/03/03 10:20:22;;;;;;;10.13;5.20;;;;;;;;;;7381443;19;20051;-69
2022/03/03 10:22:57;;;;;;;9.98;6.05;;;;;;;;;;7381584;19;20002;-70
2022/03/03 10:25:42;;;;;;;9.90;5.60;;;;;;;;;;7382363;19;20096;-71
2022/03/03 10:28:17;;;;;;;9.25;5.22;;;;;;;;;;7389344;19;20021;-70
2022/03/03 10:31:07;;;;;;;11.25;5.05;;;;;;;;;;7389104;19;20074;-70
2022/03/03 10:33:41;;;;;;;8.27;4.65;;;;;;;;;;7387557;19;20501;-71
2022/03/03 10:36:09;;;;;;;8.55;4.65;;;;;;;;;;7383976;19;20006;-70
2022/03/03 10:38:59;;;;;;;8.23;4.80;;;;;;;;;;7389134;19;20002;-70
2022/03/03 10:41:46;;;;;;;8.32;5.38;;;;;;;;;;7391472;19;20023;-70
2022/03/03 10:44:17;;;;;;;9.05;4.57;;;;;;;;;;7384123;19;20009;-77
2022/03/03 10:47:03;;;;;;;9.73;5.38;;;;;;;;;;7386104;19;20014;-71
2022/03/03 10:49:29;;;;;;;8.02;5.05;;;;;;;;;;7383860;19;20491;-70
2022/03/03 10:51:54;;;;;;;7.90;4.97;;;;;;;;;;7385438;19;20015;-70
2022/03/03 10:54:20;;;;;;;10.13;4.95;;;;;;;;;;7389127;19;20045;-71
2022/03/03 10:56:47;;;;;;;7.28;4.80;;;;;;;;;;7386604;19;20033;-70
2022/03/03 10:59:24;;;;;;;7.00;4.28;;;;;;;;;;7388136;19;20036;-71
2022/03/03 11:01:51;;;;;;;8.57;5.13;;;;;;;;;;7388937;19;20007;-72
2022/03/03 11:04:18;;;;;;;8.75;4.53;;;;;;;;;;7388582;19;20035;-71
2022/03/03 11:06:44;;;;;;;8.88;4.68;;;;;;;;;;7384692;19;20469;-72
2022/03/03 11:09:10;;;;;;;8.25;4.65;;;;;;;;;;7385431;19;20013;-71
2022/03/03 11:11:36;;;;;;;6.30;4.30;;;;;;;;;;7385783;19;20014;-70
2022/03/03 11:14:02;;;;;;;10.77;4.63;;;;;;;;;;7387690;19;20009;-70
2022/03/03 11:16:28;;;;;;;9.35;4.60;;;;;;;;;;7385491;19;20014;-70
2022/03/03 11:18:54;;;;;;;7.05;4.30;;;;;;;;;;7386308;19;20019;-70
2022/03/03 11:21:20;;;;;;;7.85;4.10;;;;;;;;;;7387361;19;20030;-70
2022/03/03 11:23:57;;;;;;;8.55;4.03;;;;;;;;;;7384012;19;20018;-72
2022/03/03 11:26:41;;;;;;;9.27;4.00;;;;;;;;;;7386576;19;20375;-71
2022/03/03 11:29:13;;;;;;;7.97;4.30;;;;;;;;;;7384735;19;20010;-71
2022/03/03 11:31:44;;;;;;;6.85;4.20;;;;;;;;;;7386760;19;20025;-70
2022/03/03 11:34:41;;;;;;;6.28;3.83;;;;;;;;;;7386894;19;20018;-71
2022/03/03 11:37:09;;;;;;;6.38;3.90;;;;;;;;;;7383652;19;20667;-70
2022/03/03 11:39:57;;;;;;;5.05;3.53;;;;;;;;;;7382512;19;20031;-71
2022/03/03 11:42:46;;;;;;;10.15;4.00;;;;;;;;;;7386665;19;20035;-70
2022/03/03 11:45:15;;;;;;;6.32;3.53;;;;;;;;;;7386147;19;20039;-70
2022/03/03 11:47:45;;;;;;;5.57;3.47;;;;;;;;;;7384403;19;20006;-70
2022/03/03 11:50:16;;;;;;;6.85;3.78;;;;;;;;;;7385294;19;20025;-71
2022/03/03 11:53:03;;;;;;;5.57;3.65;;;;;;;;;;7377886;19;20007;-70
2022/03/03 11:55:30;;;;;;;4.97;3.38;;;;;;;;;;7381497;19;20006;-72
2022/03/03 11:58:05;;;;;;;5.18;3.00;;;;;;;;;;7384198;19;20037;-71
2022/03/03 12:00:32;;;;;;;5.75;3.53;;;;;;;;;;7384997;19;20035;-71
2022/03/03 12:03:04;;;;;;;5.78;3.50;;;;;;;;;;7385045;19;20489;-71
2022/03/03 12:05:32;;;;;;;7.50;3.50;;;;;;;;;;7386302;19;20018;-70
2022/03/03 12:08:03;;;;;;;5.93;3.42;;;;;;;;;;7384312;19;20023;-71
2022/03/03 12:10:28;;;;;;;6.00;3.28;;;;;;;;;;7384590;19;20147;-71
2022/03/03 12:13:22;;;;;;;7.10;3.92;;;;;;;;;;7385803;19;20437;-70
2022/03/03 12:16:24;;;;;;;7.03;3.60;;;;;;;;;;7384576;19;20107;-70
2022/03/03 12:19:04;;;;;;;8.38;3.80;;;;;;;;;;7383289;19;20034;-69
2022/03/03 12:21:37;;;;;;;5.85;3.80;;;;;;;;;;7384376;19;20457;-70
2022/03/03 12:24:17;;;;;;;7.30;4.60;;;;;;;;;;7384897;19;20476;-70
2022/03/03 12:26:55;;;;;;;7.93;4.07;;;;;;;;;;7381977;19;20019;-71
2022/03/03 12:29:32;;;;;;;7.25;4.35;;;;;;;;;;7384578;19;20022;-71
2022/03/03 12:32:18;;;;;;;6.00;4.10;;;;;;;;;;7383142;19;20006;-70
2022/03/03 12:34:45;;;;;;;9.00;4.35;;;;;;;;;;7376828;19;20010;-70
2022/03/03 12:37:11;;;;;;;8.02;4.25;;;;;;;;;;7382734;19;20074;-70
2022/03/03 12:39:36;;;;;;;8.40;4.43;;;;;;;;;;7384318;19;20030;-70
2022/03/03 12:42:02;;;;;;;6.95;4.40;;;;;;;;;;7381715;19;20010;-70
2022/03/03 12:44:28;;;;;;;8.55;4.63;;;;;;;;;;7382195;19;20378;-70
2022/03/03 12:46:55;;;;;;;8.10;4.50;;;;;;;;;;7381634;19;20018;-70
2022/03/03 12:49:23;;;;;;;8.23;4.57;;;;;;;;;;7374256;19;20010;-70
2022/03/03 12:51:48;;;;;;;6.75;4.57;;;;;;;;;;7382536;19;20018;-71
2022/03/03 12:54:18;;;;;;;7.65;4.22;;;;;;;;;;7382827;19;20007;-70
2022/03/03 12:56:57;;;;;;;9.30;4.07;;;;;;;;;;7381724;19;20025;-70
2022/03/03 12:59:23;;;;;;;7.75;4.78;;;;;;;;;;7383844;19;20067;-69
2022/03/03 13:01:49;;;;;;;8.73;4.20;;;;;;;;;;7381778;19;20011;-71
2022/03/03 13:04:16;;;;;;;8.27;4.45;;;;;;;;;;7380549;19;20695;-70
2022/03/03 13:06:42;;;;;;;12.68;5.35;;;;;;;;;;7378290;19;20010;-69
2022/03/03 13:09:07;;;;;;;7.90;4.60;;;;;;;;;;7379181;19;20088;-69
2022/03/03 13:11:34;;;;;;;9.07;5.07;;;;;;;;;;7381346;19;20003;-70
2022/03/03 13:14:03;;;;;;;9.23;4.75;;;;;;;;;;7382579;19;20036;-69
2022/03/03 13:16:29;;;;;;;6.50;4.03;;;;;;;;;;7378891;19;20010;-70
2022/03/03 13:18:56;;;;;;;9.25;4.00;;;;;;;;;;7375494;19;20017;-70
2022/03/03 13:21:25;;;;;;;9.27;4.43;;;;;;;;;;7375282;19;20102;-70
2022/03/03 13:23:56;;;;;;;6.72;4.28;;;;;;;;;;7378814;19;20074;-70
2022/03/03 13:26:31;;;;;;;6.55;4.13;;;;;;;;;;7376094;19;20030;-71
2022/03/03 13:29:03;;;;;;;5.80;3.55;;;;;;;;;;7378004;19;20525;-70
2022/03/03 13:31:35;;;;;;;5.80;3.67;;;;;;;;;;7376285;19;20015;-70
2022/03/03 13:34:07;;;;;;;5.75;3.50;;;;;;;;;;7375697;19;20022;-70
2022/03/03 13:36:38;;;;;;;5.75;3.28;;;;;;;;;;7375227;19;20013;-68
2022/03/03 13:39:24;;;;;;;8.10;4.43;;;;;;;;;;7376997;19;20360;-67
2022/03/03 13:42:10;;;;;;;7.50;3.80;;;;;;;;;;7377592;19;20073;-70
2022/03/03 13:44:37;;;;;;;8.63;3.65;;;;;;;;;;7377620;19;20007;-69
2022/03/03 13:47:06;;;;;;;7.40;3.67;;;;;;;;;;7376479;19;20791;-69
2022/03/03 13:49:33;;;;;;;7.32;3.95;;;;;;;;;;7372581;19;20014;-70
2022/03/03 13:52:07;;;;;;;10.57;3.50;;;;;;;;;;7375643;19;20147;-69
2022/03/03 13:54:42;;;;;;;5.22;3.55;;;;;;;;;;7375447;19;20437;-70
2022/03/03 13:57:08;;;;;;;4.68;3.40;;;;;;;;;;7372939;19;20014;-70
2022/03/03 13:59:57;;;;;;;9.32;3.45;;;;;;;;;;7374708;19;20039;-69
2022/03/03 14:02:22;;;;;;;4.25;2.88;;;;;;;;;;7374545;19;20014;-70
2022/03/03 14:05:06;;;;;;;4.45;2.80;;;;;;;;;;7371765;19;20071;-70
2022/03/03 14:07:34;;;;;;;2.70;1.95;;;;;;;;;;7379405;19;20015;-70
2022/03/03 14:10:05;;;;;;;4.57;2.42;;;;;;;;;;7377923;19;20014;-68
2022/03/03 14:12:31;;;;;;;5.65;2.40;;;;;;;;;;7378450;19;20018;-68
2022/03/03 14:14:57;;;;;;;5.38;2.70;;;;;;;;;;7378249;19;20006;-73
2022/03/03 14:17:23;;;;;;;3.30;2.17;;;;;;;;;;7376573;19;20039;-70
2022/03/03 14:19:49;;;;;;;3.65;2.33;;;;;;;;;;7377103;19;20006;-68
2022/03/03 14:22:18;;;;;;;5.38;2.25;;;;;;;;;;7382664;19;20022;-70
2022/03/03 14:24:45;;;;;;;4.32;2.50;;;;;;;;;;7384173;19;20009;-70
2022/03/03 14:27:11;;;;;;;3.70;2.20;;;;;;;;;;7381833;19;20012;-73
2022/03/03 14:29:36;;;;;;;4.15;2.20;;;;;;;;;;7384257;19;20061;-69
2022/03/03 14:32:02;;;;;;;4.22;2.53;;;;;;;;;;7380233;19;20497;-69
2022/03/03 14:34:33;;;;;;;3.53;2.40;;;;;;;;;;7382998;19;20007;-71
2022/03/03 14:36:58;;;;;;;2.88;1.77;;;;;;;;;;7381747;19;20662;-69
2022/03/03 14:39:23;;;;;;;3.33;2.20;;;;;;;;;;7383520;19;19999;-71
2022/03/03 14:41:49;;;;;;;3.22;2.20;;;;;;;;;;7383259;19;20350;-69
2022/03/03 14:44:14;;;;;;;2.72;1.98;;;;;;;;;;7384964;19;20070;-70
2022/03/03 14:46:40;;;;;;;3.50;1.92;;;;;;;;;;7383262;19;20003;-69
2022/03/03 14:49:07;;;;;;;4.43;2.50;;;;;;;;;;7384385;19;20026;-69